Time;durP1;ratioP1;P1;durP2;ratioP2;P2;SDS_P1;SDS_P2;PMS_P1;PMS_P2;Temp;Humidity;BMP_temperature;BMP_pressure;BME280_temperature;BME280_humidity;BME280_pressure;Samples;Min_cycle;Max_cycle;Signal;HPM_P1;HPM_P2
2022/05/04 00:02:02;;;;;;;6.53;4.15;;;;;;;;;;1715269;84;21033;-72
2022/05/04 00:04:28;;;;;;;6.42;4.65;;;;;;;;;;1715094;83;21080;-72
2022/05/04 00:06:54;;;;;;;6.50;4.50;;;;;;;;;;1715399;84;21515;-72
2022/05/04 00:09:22;;;;;;;6.08;4.53;;;;;;;;;;1714974;84;21072;-72
2022/05/04 00:11:49;;;;;;;5.83;4.30;;;;;;;;;;1715048;84;21556;-72
2022/05/04 00:14:15;;;;;;;5.97;4.35;;;;;;;;;;1715210;83;21025;-72
2022/05/04 00:16:41;;;;;;;6.25;5.03;;;;;;;;;;1715060;84;21027;-72
2022/05/04 00:19:07;;;;;;;6.15;4.37;;;;;;;;;;1715159;83;21022;-72
2022/05/04 00:21:34;;;;;;;7.12;4.92;;;;;;;;;;1715137;83;21049;-71
2022/05/04 00:23:59;;;;;;;5.45;4.45;;;;;;;;;;1715096;84;21068;-74
2022/05/04 00:26:26;;;;;;;6.62;4.08;;;;;;;;;;1715381;83;21017;-74
2022/05/04 00:28:52;;;;;;;6.45;4.40;;;;;;;;;;1714926;84;21073;-74
2022/05/04 00:31:18;;;;;;;6.55;4.12;;;;;;;;;;1715217;84;21057;-72
2022/05/04 00:33:44;;;;;;;6.33;4.35;;;;;;;;;;1714797;84;21571;-74
2022/05/04 00:36:10;;;;;;;7.42;4.28;;;;;;;;;;1715301;84;21051;-74
2022/05/04 00:38:37;;;;;;;7.05;4.30;;;;;;;;;;1715269;84;20981;-74
2022/05/04 00:41:03;;;;;;;9.30;4.30;;;;;;;;;;1715041;84;21060;-74
2022/05/04 00:43:29;;;;;;;5.80;4.22;;;;;;;;;;1715294;84;21067;-73
2022/05/04 00:45:56;;;;;;;6.25;4.17;;;;;;;;;;1715154;84;21523;-71
2022/05/04 00:48:22;;;;;;;5.97;4.00;;;;;;;;;;1715251;84;21040;-74
2022/05/04 00:50:49;;;;;;;7.55;4.47;;;;;;;;;;1718714;83;21048;-74
2022/05/04 00:53:16;;;;;;;7.62;4.80;;;;;;;;;;1719567;83;21028;-74
2022/05/04 00:55:42;;;;;;;6.08;4.70;;;;;;;;;;1719739;83;21484;-74
2022/05/04 01:03:41;;;;;;;6.22;4.05;;;;;;;;;;1732096;79;21986;-71
2022/05/04 01:06:08;;;;;;;7.55;4.50;;;;;;;;;;1784084;80;21013;-71
2022/05/04 01:08:34;;;;;;;10.35;4.70;;;;;;;;;;1785256;80;21028;-71
2022/05/04 01:11:00;;;;;;;6.72;4.47;;;;;;;;;;1784461;80;21056;-71
2022/05/04 01:13:26;;;;;;;6.53;4.40;;;;;;;;;;1772144;80;21492;-71
2022/05/04 01:15:52;;;;;;;5.42;4.05;;;;;;;;;;1772215;80;20993;-71
2022/05/04 01:18:19;;;;;;;8.85;4.78;;;;;;;;;;1783760;79;21078;-72
2022/05/04 01:20:45;;;;;;;6.35;4.42;;;;;;;;;;1784481;80;21016;-72
2022/05/04 01:23:11;;;;;;;5.55;4.40;;;;;;;;;;1781196;80;20985;-72
2022/05/04 01:25:37;;;;;;;5.70;4.45;;;;;;;;;;1778057;80;21017;-72
2022/05/04 01:28:04;;;;;;;7.80;4.62;;;;;;;;;;1778186;80;21037;-72
2022/05/04 01:30:32;;;;;;;6.28;3.92;;;;;;;;;;1778240;80;21048;-72
2022/05/04 01:32:59;;;;;;;6.72;4.70;;;;;;;;;;1783063;80;21040;-71
2022/05/04 01:35:26;;;;;;;5.60;3.83;;;;;;;;;;1780805;80;21048;-72
2022/05/04 01:37:52;;;;;;;7.03;4.20;;;;;;;;;;1778315;80;21076;-72
2022/05/04 01:40:19;;;;;;;5.80;4.47;;;;;;;;;;1759757;81;21024;-72
2022/05/04 01:42:45;;;;;;;6.75;4.30;;;;;;;;;;1777580;80;21538;-72
2022/05/04 01:45:11;;;;;;;7.22;3.87;;;;;;;;;;1774039;80;20997;-72
2022/05/04 01:47:37;;;;;;;6.87;4.30;;;;;;;;;;1775291;80;21052;-72
2022/05/04 01:50:03;;;;;;;7.65;4.50;;;;;;;;;;1779039;80;21056;-71
2022/05/04 01:52:30;;;;;;;7.08;4.60;;;;;;;;;;1774075;80;21036;-72
2022/05/04 01:54:56;;;;;;;5.72;4.50;;;;;;;;;;1770834;80;20980;-72
2022/05/04 01:57:22;;;;;;;5.20;4.03;;;;;;;;;;1784419;80;21527;-72
2022/05/04 01:59:48;;;;;;;5.85;3.90;;;;;;;;;;1781529;80;21528;-72
2022/05/04 02:02:14;;;;;;;9.43;4.62;;;;;;;;;;1772196;80;20942;-71
2022/05/04 02:04:40;;;;;;;8.40;4.42;;;;;;;;;;1731508;81;21092;-72
2022/05/04 02:07:07;;;;;;;6.08;4.05;;;;;;;;;;1751492;82;21141;-71
2022/05/04 02:09:33;;;;;;;5.22;4.10;;;;;;;;;;1720719;82;21579;-71
2022/05/04 02:11:59;;;;;;;7.58;4.30;;;;;;;;;;1732882;82;21041;-74
2022/05/04 02:14:25;;;;;;;8.43;4.72;;;;;;;;;;1755679;82;21081;-73
2022/05/04 02:16:51;;;;;;;7.62;4.55;;;;;;;;;;1756249;82;21009;-73
2022/05/04 02:19:17;;;;;;;7.10;4.50;;;;;;;;;;1756306;82;20997;-74
2022/05/04 02:21:43;;;;;;;5.90;4.55;;;;;;;;;;1756175;82;21061;-73
2022/05/04 02:24:11;;;;;;;10.58;4.65;;;;;;;;;;1755877;82;21152;-73
2022/05/04 02:26:38;;;;;;;7.47;4.75;;;;;;;;;;1756330;82;21100;-74
2022/05/04 02:29:04;;;;;;;8.73;4.15;;;;;;;;;;1755993;82;21016;-73
2022/05/04 02:31:30;;;;;;;7.85;4.28;;;;;;;;;;1716297;82;20995;-74
2022/05/04 02:33:56;;;;;;;6.70;4.35;;;;;;;;;;1742940;82;21022;-73
2022/05/04 02:39:06;;;;;;;5.97;4.28;;;;;;;;;;1740439;82;21091;-73
2022/05/04 02:41:33;;;;;;;9.83;4.67;;;;;;;;;;1739448;82;21078;-73
2022/05/04 02:44:01;;;;;;;6.45;4.22;;;;;;;;;;1751103;82;21164;-73
2022/05/04 02:46:28;;;;;;;6.78;4.28;;;;;;;;;;1756160;82;21030;-74
2022/05/04 02:48:53;;;;;;;8.85;4.58;;;;;;;;;;1756070;82;21038;-73
2022/05/04 02:51:20;;;;;;;8.10;4.40;;;;;;;;;;1756243;82;21492;-73
2022/05/04 02:53:46;;;;;;;7.20;4.20;;;;;;;;;;1755914;82;21046;-74
2022/05/04 02:56:15;;;;;;;7.05;4.22;;;;;;;;;;1756113;82;21605;-73
2022/05/04 02:58:42;;;;;;;7.25;4.25;;;;;;;;;;1724451;82;21093;-74
2022/05/04 03:04:02;;;;;;;7.35;4.22;;;;;;;;;;1731623;81;21070;-72
2022/05/04 03:06:29;;;;;;;5.85;4.10;;;;;;;;;;1755796;81;21524;-72
2022/05/04 03:08:56;;;;;;;7.17;3.85;;;;;;;;;;1756019;81;21009;-72
2022/05/04 03:14:07;;;;;;;7.30;4.87;;;;;;;;;;1756317;81;21081;-72
2022/05/04 03:16:37;;;;;;;4.90;3.50;;;;;;;;;;1720199;82;21041;-72
2022/05/04 03:19:03;;;;;;;6.90;3.90;;;;;;;;;;1721346;82;21089;-72
2022/05/04 03:21:30;;;;;;;5.90;3.80;;;;;;;;;;1755793;82;21056;-72
2022/05/04 03:23:58;;;;;;;4.83;3.60;;;;;;;;;;1756013;82;21065;-72
2022/05/04 03:26:24;;;;;;;5.65;4.05;;;;;;;;;;1721261;82;21042;-72
2022/05/04 03:28:50;;;;;;;6.20;3.37;;;;;;;;;;1720186;82;21036;-72
2022/05/04 03:31:17;;;;;;;4.87;3.42;;;;;;;;;;1743892;82;21062;-72
2022/05/04 03:33:43;;;;;;;6.15;3.75;;;;;;;;;;1730175;82;21042;-72
2022/05/04 03:36:09;;;;;;;6.80;4.17;;;;;;;;;;1741562;82;21077;-72
2022/05/04 03:38:36;;;;;;;6.65;3.67;;;;;;;;;;1723740;82;21025;-71
2022/05/04 03:41:02;;;;;;;5.65;3.90;;;;;;;;;;1743532;82;21103;-72
2022/05/04 03:43:28;;;;;;;5.22;3.52;;;;;;;;;;1755685;82;21029;-71
2022/05/04 03:45:54;;;;;;;5.50;3.55;;;;;;;;;;1756129;82;21033;-72
2022/05/04 03:48:21;;;;;;;5.78;3.62;;;;;;;;;;1756344;82;21010;-72
2022/05/04 03:50:47;;;;;;;7.70;3.70;;;;;;;;;;1756119;82;21020;-71
2022/05/04 03:53:13;;;;;;;5.47;4.00;;;;;;;;;;1756343;82;21052;-71
2022/05/04 03:55:39;;;;;;;7.55;4.15;;;;;;;;;;1755185;82;21037;-71
2022/05/04 03:58:05;;;;;;;5.60;3.98;;;;;;;;;;1718710;82;21021;-71
2022/05/04 04:00:32;;;;;;;5.58;3.40;;;;;;;;;;1733890;82;21062;-71
2022/05/04 04:02:58;;;;;;;5.10;3.65;;;;;;;;;;1726101;81;21603;-71
2022/05/04 04:05:24;;;;;;;6.90;4.33;;;;;;;;;;1756212;80;21009;-71
2022/05/04 04:07:50;;;;;;;6.33;3.95;;;;;;;;;;1769460;80;21001;-70
2022/05/04 04:10:16;;;;;;;6.30;3.72;;;;;;;;;;1790352;80;21003;-71
2022/05/04 04:12:42;;;;;;;5.25;4.12;;;;;;;;;;1787521;80;21025;-71
2022/05/04 04:15:09;;;;;;;5.10;4.05;;;;;;;;;;1776634;80;21025;-71
2022/05/04 04:17:35;;;;;;;10.75;4.67;;;;;;;;;;1753038;80;21020;-71
2022/05/04 04:22:45;;;;;;;5.90;4.35;;;;;;;;;;1735885;80;21049;-70
2022/05/04 04:25:11;;;;;;;5.28;3.90;;;;;;;;;;1781209;80;21025;-70
2022/05/04 04:27:38;;;;;;;6.30;3.90;;;;;;;;;;1771307;80;21025;-70
2022/05/04 04:30:05;;;;;;;8.25;4.40;;;;;;;;;;1779705;80;21044;-71
2022/05/04 04:32:31;;;;;;;6.95;4.45;;;;;;;;;;1762677;80;21541;-71
2022/05/04 04:34:58;;;;;;;6.47;4.40;;;;;;;;;;1731816;82;21021;-71
2022/05/04 04:37:24;;;;;;;7.08;4.62;;;;;;;;;;1745909;82;21016;-71
2022/05/04 04:39:50;;;;;;;5.05;3.83;;;;;;;;;;1741602;82;21009;-71
2022/05/04 04:42:16;;;;;;;6.37;4.12;;;;;;;;;;1748681;82;21547;-71
2022/05/04 04:44:42;;;;;;;7.45;4.50;;;;;;;;;;1749911;82;21017;-71
2022/05/04 04:47:08;;;;;;;5.67;3.90;;;;;;;;;;1750338;82;21043;-70
2022/05/04 04:49:34;;;;;;;6.33;4.10;;;;;;;;;;1750157;82;21496;-72
2022/05/04 04:52:02;;;;;;;7.08;4.25;;;;;;;;;;1777497;80;21096;-71
2022/05/04 04:54:28;;;;;;;8.05;4.10;;;;;;;;;;1781044;80;21028;-71
2022/05/04 04:56:54;;;;;;;5.30;3.65;;;;;;;;;;1780388;80;21005;-71
2022/05/04 04:59:21;;;;;;;6.40;4.03;;;;;;;;;;1761224;80;21068;-71
2022/05/04 05:01:47;;;;;;;6.72;4.28;;;;;;;;;;1755028;80;21028;-71
2022/05/04 05:04:13;;;;;;;7.33;4.55;;;;;;;;;;1749962;80;21139;-71
2022/05/04 05:06:38;;;;;;;7.33;4.20;;;;;;;;;;1777167;80;21055;-72
2022/05/04 05:09:06;;;;;;;5.75;4.30;;;;;;;;;;1789864;78;21044;-71
2022/05/04 05:11:34;;;;;;;7.58;3.75;;;;;;;;;;1790017;80;21068;-71
2022/05/04 05:16:46;;;;;;;10.15;3.72;;;;;;;;;;1790168;80;21056;-71
2022/05/04 05:19:11;;;;;;;5.62;4.37;;;;;;;;;;1790117;80;21423;-71
2022/05/04 05:21:38;;;;;;;5.47;3.80;;;;;;;;;;1789955;80;21056;-71
2022/05/04 05:24:05;;;;;;;7.75;3.60;;;;;;;;;;1791337;78;21459;-71
2022/05/04 05:26:32;;;;;;;5.60;3.60;;;;;;;;;;1790015;80;21001;-72
2022/05/04 05:28:59;;;;;;;4.85;3.15;;;;;;;;;;1790111;80;21519;-72
2022/05/04 05:31:25;;;;;;;5.15;3.37;;;;;;;;;;1790164;80;21477;-72
2022/05/04 05:33:51;;;;;;;7.83;3.70;;;;;;;;;;1789940;80;21028;-72
2022/05/04 05:36:17;;;;;;;7.08;3.50;;;;;;;;;;1789464;80;21013;-73
2022/05/04 05:38:43;;;;;;;6.08;4.00;;;;;;;;;;1788234;79;21587;-71
2022/05/04 05:41:09;;;;;;;5.67;4.25;;;;;;;;;;1788070;80;21005;-71
2022/05/04 05:43:35;;;;;;;8.33;4.17;;;;;;;;;;1789391;80;21067;-71
2022/05/04 05:46:01;;;;;;;9.30;4.08;;;;;;;;;;1789994;80;21012;-71
2022/05/04 05:48:27;;;;;;;6.58;3.90;;;;;;;;;;1792078;78;21048;-68
2022/05/04 05:50:55;;;;;;;6.42;3.70;;;;;;;;;;1788605;80;21052;-68
2022/05/04 05:53:24;;;;;;;5.65;3.77;;;;;;;;;;1804219;79;21020;-68
2022/05/04 05:55:50;;;;;;;6.30;3.67;;;;;;;;;;1790044;80;21052;-68
2022/05/04 05:58:16;;;;;;;7.72;3.83;;;;;;;;;;1789246;80;21459;-68
2022/05/04 06:00:42;;;;;;;6.12;3.27;;;;;;;;;;1788168;80;20972;-68
2022/05/04 06:03:08;;;;;;;5.60;3.90;;;;;;;;;;1788367;78;21064;-68
2022/05/04 06:05:35;;;;;;;4.30;3.37;;;;;;;;;;1779476;80;21068;-68
2022/05/04 06:08:01;;;;;;;6.58;3.65;;;;;;;;;;1773617;81;21067;-68
2022/05/04 06:10:28;;;;;;;10.00;4.30;;;;;;;;;;1774420;81;21046;-68
2022/05/04 06:12:55;;;;;;;7.78;4.55;;;;;;;;;;1774853;81;21054;-71
2022/05/04 06:15:23;;;;;;;9.83;4.60;;;;;;;;;;1774905;81;21038;-71
2022/05/04 06:17:49;;;;;;;8.40;4.60;;;;;;;;;;1764087;79;20992;-71
2022/05/04 06:20:17;;;;;;;11.05;4.67;;;;;;;;;;1774679;81;21092;-71
2022/05/04 06:22:42;;;;;;;9.95;4.65;;;;;;;;;;1774196;79;21025;-71
2022/05/04 06:25:09;;;;;;;7.53;4.80;;;;;;;;;;1774977;81;21024;-71
2022/05/04 06:27:35;;;;;;;7.05;4.30;;;;;;;;;;1775178;81;21025;-71
2022/05/04 06:35:30;;;;;;;11.48;5.30;;;;;;;;;;1774910;81;21013;-71
2022/05/04 06:37:56;;;;;;;9.68;5.05;;;;;;;;;;1774739;81;21103;-71
2022/05/04 06:40:22;;;;;;;9.28;4.30;;;;;;;;;;1774968;81;22141;-70
2022/05/04 06:42:48;;;;;;;9.95;4.92;;;;;;;;;;1775096;81;21032;-70
2022/05/04 06:45:14;;;;;;;7.78;4.28;;;;;;;;;;1774582;81;21068;-70
2022/05/04 06:47:41;;;;;;;8.73;3.72;;;;;;;;;;1772879;81;21156;-71
2022/05/04 06:50:07;;;;;;;7.17;3.70;;;;;;;;;;1780410;79;21080;-70
2022/05/04 06:52:33;;;;;;;8.95;4.00;;;;;;;;;;1790403;79;21044;-70
2022/05/04 06:54:59;;;;;;;8.18;3.42;;;;;;;;;;1733005;83;21348;-70
2022/05/04 06:57:26;;;;;;;7.00;3.20;;;;;;;;;;1767770;81;21045;-70
2022/05/04 06:59:52;;;;;;;8.85;3.75;;;;;;;;;;1775070;80;20974;-72
2022/05/04 07:02:19;;;;;;;10.28;3.50;;;;;;;;;;1776927;79;21056;-72
2022/05/04 07:04:45;;;;;;;5.03;3.37;;;;;;;;;;1764022;79;21048;-71
2022/05/04 07:07:11;;;;;;;5.12;2.85;;;;;;;;;;1747898;80;21071;-71
2022/05/04 07:09:37;;;;;;;4.47;3.10;;;;;;;;;;1747608;81;21024;-71
2022/05/04 07:12:03;;;;;;;5.33;2.72;;;;;;;;;;1744577;82;21053;-68
2022/05/04 07:14:30;;;;;;;4.20;2.60;;;;;;;;;;1734318;82;21092;-68
2022/05/04 07:16:56;;;;;;;4.03;2.95;;;;;;;;;;1704556;83;21065;-68
2022/05/04 07:19:23;;;;;;;4.70;3.17;;;;;;;;;;1745712;82;21064;-68
2022/05/04 07:21:49;;;;;;;4.35;2.70;;;;;;;;;;1750006;82;21595;-68
2022/05/04 07:24:15;;;;;;;5.80;2.80;;;;;;;;;;1750008;82;21049;-69
2022/05/04 07:26:41;;;;;;;3.08;2.22;;;;;;;;;;1750071;82;21036;-69
2022/05/04 07:29:07;;;;;;;5.15;2.75;;;;;;;;;;1745248;82;21060;-69
2022/05/04 07:31:34;;;;;;;3.83;2.62;;;;;;;;;;1745272;82;21060;-69
2022/05/04 07:34:00;;;;;;;3.67;2.30;;;;;;;;;;1745176;82;21018;-72
2022/05/04 07:36:26;;;;;;;3.25;2.20;;;;;;;;;;1723386;81;21031;-71
2022/05/04 07:38:52;;;;;;;2.95;2.25;;;;;;;;;;1707470;84;21003;-75
2022/05/04 07:44:04;;;;;;;3.12;2.40;;;;;;;;;;1731057;81;21449;-76
2022/05/04 07:46:30;;;;;;;2.98;2.00;;;;;;;;;;1772437;81;21162;-77
2022/05/04 07:48:55;;;;;;;3.30;2.40;;;;;;;;;;1774890;81;21081;-75
2022/05/04 07:51:21;;;;;;;4.37;2.50;;;;;;;;;;1772694;81;21507;-73
2022/05/04 07:53:48;;;;;;;4.03;2.30;;;;;;;;;;1747540;82;21057;-73
2022/05/04 07:56:15;;;;;;;6.83;2.60;;;;;;;;;;1748838;80;22094;-76
2022/05/04 07:58:41;;;;;;;4.87;2.25;;;;;;;;;;1749857;82;21072;-68
2022/05/04 08:06:16;;;;;;;2.55;2.10;;;;;;;;;;1823700;78;22771;-75
2022/05/04 08:08:42;;;;;;;4.10;2.30;;;;;;;;;;1778348;80;20993;-73
2022/05/04 08:11:08;;;;;;;3.02;2.30;;;;;;;;;;1760906;80;22089;-73
2022/05/04 08:13:35;;;;;;;5.47;2.40;;;;;;;;;;1754628;81;21064;-73
2022/05/04 08:16:01;;;;;;;3.02;2.37;;;;;;;;;;1754594;81;21005;-73
2022/05/04 08:18:27;;;;;;;3.75;2.30;;;;;;;;;;1761623;81;21068;-73
2022/05/04 08:20:54;;;;;;;4.97;2.47;;;;;;;;;;1761614;81;21013;-73
2022/05/04 08:23:20;;;;;;;2.45;2.00;;;;;;;;;;1762045;81;21032;-70
2022/05/04 08:25:46;;;;;;;2.40;2.05;;;;;;;;;;1760646;80;20965;-73
2022/05/04 08:28:13;;;;;;;4.35;1.98;;;;;;;;;;1759364;81;21000;-73
2022/05/04 08:30:40;;;;;;;3.15;2.08;;;;;;;;;;1760754;80;21024;-74
2022/05/04 08:33:06;;;;;;;3.27;2.17;;;;;;;;;;1758575;81;21595;-73
2022/05/04 08:35:34;;;;;;;3.25;2.10;;;;;;;;;;1761467;81;21052;-80
2022/05/04 08:38:00;;;;;;;3.37;2.00;;;;;;;;;;1762214;81;20989;-79
2022/05/04 08:40:26;;;;;;;4.58;2.20;;;;;;;;;;1755818;81;21079;-79
2022/05/04 08:42:52;;;;;;;3.37;2.15;;;;;;;;;;1759142;81;21602;-79
2022/05/04 08:45:18;;;;;;;3.27;2.42;;;;;;;;;;1739671;81;21143;-78
2022/05/04 08:47:45;;;;;;;4.30;2.27;;;;;;;;;;1746774;81;21025;-77
2022/05/04 08:50:12;;;;;;;5.17;2.83;;;;;;;;;;1773645;80;21551;-70
2022/05/04 08:52:40;;;;;;;6.12;2.60;;;;;;;;;;1771886;81;21087;-71
2022/05/04 08:55:06;;;;;;;5.92;2.85;;;;;;;;;;1775972;80;20977;-71
2022/05/04 08:57:33;;;;;;;4.35;2.58;;;;;;;;;;1737268;81;21024;-71
2022/05/04 08:59:59;;;;;;;4.00;2.67;;;;;;;;;;1761215;81;20996;-71
2022/05/04 09:02:25;;;;;;;7.97;3.37;;;;;;;;;;1761526;81;21580;-70
2022/05/04 09:04:52;;;;;;;4.55;2.47;;;;;;;;;;1725619;82;21063;-70
2022/05/04 09:07:25;;;;;;;4.55;2.60;;;;;;;;;;1721930;82;21516;-70
2022/05/04 09:09:51;;;;;;;3.90;2.55;;;;;;;;;;1722366;82;21603;-69
2022/05/04 09:12:18;;;;;;;3.42;2.60;;;;;;;;;;1750612;82;21029;-69
2022/05/04 09:14:44;;;;;;;3.72;2.35;;;;;;;;;;1738815;82;21052;-69
2022/05/04 09:17:11;;;;;;;4.12;2.52;;;;;;;;;;1723862;83;21028;-69
2022/05/04 09:19:38;;;;;;;5.17;2.83;;;;;;;;;;1726917;82;21013;-69
2022/05/04 09:22:17;;;;;;;4.47;2.90;;;;;;;;;;1724938;82;20965;-69
2022/05/04 09:24:44;;;;;;;6.22;3.35;;;;;;;;;;1727840;82;21087;-69
2022/05/04 09:27:10;;;;;;;5.37;3.10;;;;;;;;;;1735625;82;21014;-69
2022/05/04 09:29:36;;;;;;;5.45;2.85;;;;;;;;;;1743661;82;21028;-71
2022/05/04 09:32:13;;;;;;;5.55;3.00;;;;;;;;;;1743790;82;20993;-71
2022/05/04 09:34:39;;;;;;;4.40;2.42;;;;;;;;;;1743357;82;21123;-72
2022/05/04 09:45:36;;;;;;;5.05;2.50;;;;;;;;;;1721767;83;21032;-69
2022/05/04 09:48:02;;;;;;;3.98;2.27;;;;;;;;;;1724794;83;20996;-72
2022/05/04 09:50:29;;;;;;;5.53;2.60;;;;;;;;;;1725268;83;21043;-70
2022/05/04 09:52:56;;;;;;;5.42;2.75;;;;;;;;;;1719738;83;21072;-73
2022/05/04 09:55:24;;;;;;;6.37;2.60;;;;;;;;;;1724023;82;21021;-72
2022/05/04 09:57:51;;;;;;;3.60;2.52;;;;;;;;;;1723600;83;21014;-71
2022/05/04 10:00:19;;;;;;;3.90;2.30;;;;;;;;;;1724559;83;21536;-69
2022/05/04 10:02:45;;;;;;;2.75;2.00;;;;;;;;;;1722431;82;21060;-69
2022/05/04 10:05:12;;;;;;;5.55;2.95;;;;;;;;;;1721722;83;21501;-72
2022/05/04 10:07:39;;;;;;;4.95;2.35;;;;;;;;;;1713380;83;21024;-73
2022/05/04 10:10:06;;;;;;;5.33;2.45;;;;;;;;;;1712479;84;21044;-73
2022/05/04 10:12:38;;;;;;;5.17;2.15;;;;;;;;;;1712287;84;21009;-73
2022/05/04 10:15:07;;;;;;;9.13;2.77;;;;;;;;;;1714708;83;20952;-72
2022/05/04 10:17:33;;;;;;;2.90;2.02;;;;;;;;;;1722440;82;21065;-72
2022/05/04 10:20:09;;;;;;;6.35;2.37;;;;;;;;;;1713817;83;21026;-71
2022/05/04 10:22:40;;;;;;;3.00;2.00;;;;;;;;;;1715720;83;21015;-70
2022/05/04 10:25:06;;;;;;;3.12;1.87;;;;;;;;;;1715377;83;21045;-71
2022/05/04 10:27:35;;;;;;;2.70;2.02;;;;;;;;;;1716725;83;21010;-73
2022/05/04 10:32:47;;;;;;;3.37;2.02;;;;;;;;;;1712744;83;21056;-72
2022/05/04 10:35:20;;;;;;;6.92;2.30;;;;;;;;;;1712465;83;21520;-73
2022/05/04 10:37:54;;;;;;;3.57;1.90;;;;;;;;;;1712717;84;21044;-74
2022/05/04 10:40:24;;;;;;;2.15;1.60;;;;;;;;;;1712120;83;21073;-73
2022/05/04 10:42:58;;;;;;;4.08;2.00;;;;;;;;;;1710597;83;21013;-72
2022/05/04 10:45:26;;;;;;;3.60;1.90;;;;;;;;;;1710356;83;21484;-78
2022/05/04 10:47:52;;;;;;;3.12;1.90;;;;;;;;;;1718456;83;21554;-71
2022/05/04 10:50:19;;;;;;;2.55;1.80;;;;;;;;;;1730707;82;21607;-74
2022/05/04 10:52:48;;;;;;;8.58;2.35;;;;;;;;;;1719824;82;21005;-74
2022/05/04 10:55:14;;;;;;;4.05;2.50;;;;;;;;;;1728019;82;21041;-71
2022/05/04 10:57:41;;;;;;;3.20;2.12;;;;;;;;;;1712181;84;21033;-72
2022/05/04 11:00:07;;;;;;;5.53;2.35;;;;;;;;;;1715784;83;21628;-73
2022/05/04 11:02:34;;;;;;;6.62;2.00;;;;;;;;;;1716647;82;21093;-72
2022/05/04 11:05:02;;;;;;;3.27;2.00;;;;;;;;;;1716581;83;21485;-73
2022/05/04 11:07:29;;;;;;;3.55;1.90;;;;;;;;;;1716469;83;21045;-73
2022/05/04 11:10:00;;;;;;;3.87;1.77;;;;;;;;;;1714212;83;21668;-73
2022/05/04 11:12:26;;;;;;;5.65;2.70;;;;;;;;;;1726538;82;21052;-73
2022/05/04 11:14:53;;;;;;;3.87;2.22;;;;;;;;;;1715925;83;20982;-79
2022/05/04 11:17:18;;;;;;;5.30;2.27;;;;;;;;;;1726625;82;21011;-79
2022/05/04 11:19:48;;;;;;;2.35;2.00;;;;;;;;;;1723643;83;21014;-79
2022/05/04 11:22:14;;;;;;;4.58;1.70;;;;;;;;;;1716730;83;20989;-79
2022/05/04 11:24:40;;;;;;;3.00;1.80;;;;;;;;;;1737801;82;21051;-79
2022/05/04 11:27:07;;;;;;;3.58;2.00;;;;;;;;;;1717262;81;21077;-79
2022/05/04 11:29:33;;;;;;;3.33;2.00;;;;;;;;;;1716996;83;21025;-75
2022/05/04 11:32:01;;;;;;;3.75;2.35;;;;;;;;;;1716015;83;21005;-76
2022/05/04 11:34:27;;;;;;;4.20;2.20;;;;;;;;;;1715650;83;21049;-72
2022/05/04 11:36:56;;;;;;;3.72;2.40;;;;;;;;;;1712864;83;21044;-73
2022/05/04 11:39:22;;;;;;;4.47;2.40;;;;;;;;;;1687480;84;21033;-72
2022/05/04 11:41:50;;;;;;;5.05;2.08;;;;;;;;;;1690880;83;20941;-72
2022/05/04 11:44:18;;;;;;;7.58;2.42;;;;;;;;;;1717523;83;21052;-72
2022/05/04 11:46:47;;;;;;;4.25;2.15;;;;;;;;;;1687579;84;21081;-72
2022/05/04 11:49:13;;;;;;;5.90;2.20;;;;;;;;;;1667320;86;21067;-72
2022/05/04 11:51:39;;;;;;;2.92;1.90;;;;;;;;;;1716864;83;21045;-72
2022/05/04 11:54:05;;;;;;;2.90;1.80;;;;;;;;;;1715813;83;21028;-73
2022/05/04 11:56:33;;;;;;;3.83;1.90;;;;;;;;;;1715745;83;21415;-73
2022/05/04 11:59:01;;;;;;;4.42;2.10;;;;;;;;;;1725426;83;21044;-72
2022/05/04 12:01:27;;;;;;;3.35;2.05;;;;;;;;;;1725689;82;21037;-72
2022/05/04 12:03:53;;;;;;;4.22;2.22;;;;;;;;;;1712386;82;21623;-72
2022/05/04 12:06:19;;;;;;;3.33;2.08;;;;;;;;;;1722995;83;21500;-73
2022/05/04 12:08:45;;;;;;;4.35;2.27;;;;;;;;;;1731255;83;21064;-72
2022/05/04 12:11:11;;;;;;;2.67;1.80;;;;;;;;;;1731377;83;21050;-72
2022/05/04 12:13:37;;;;;;;3.67;1.77;;;;;;;;;;1731021;83;21080;-72
2022/05/04 12:16:04;;;;;;;3.25;1.50;;;;;;;;;;1743242;81;21526;-72
2022/05/04 12:18:32;;;;;;;4.95;2.17;;;;;;;;;;1761797;81;21051;-72
2022/05/04 12:21:00;;;;;;;3.60;2.30;;;;;;;;;;1748509;81;20989;-72
2022/05/04 12:23:28;;;;;;;3.92;2.10;;;;;;;;;;1724799;83;21008;-73
2022/05/04 12:25:54;;;;;;;4.53;2.40;;;;;;;;;;1725265;83;21563;-73
2022/05/04 12:28:20;;;;;;;5.35;2.55;;;;;;;;;;1717840;81;21020;-73
2022/05/04 12:33:34;;;;;;;4.28;2.30;;;;;;;;;;1677216;85;21137;-73
2022/05/04 12:36:00;;;;;;;3.83;2.25;;;;;;;;;;1666226;85;21057;-72
2022/05/04 12:38:27;;;;;;;3.30;1.98;;;;;;;;;;1661953;86;21025;-73
2022/05/04 12:40:54;;;;;;;3.98;2.12;;;;;;;;;;1716334;83;21037;-72
2022/05/04 12:43:22;;;;;;;4.80;1.80;;;;;;;;;;1699352;83;21031;-72
2022/05/04 12:45:48;;;;;;;2.98;1.85;;;;;;;;;;1723023;83;21610;-72
2022/05/04 12:48:14;;;;;;;2.27;1.57;;;;;;;;;;1695279;85;21024;-73
2022/05/04 12:50:40;;;;;;;3.65;1.70;;;;;;;;;;1722581;83;21075;-73
2022/05/04 12:53:06;;;;;;;3.50;1.70;;;;;;;;;;1691203;85;21025;-73
2022/05/04 12:58:16;;;;;;;2.85;1.90;;;;;;;;;;1651381;85;21025;-73
2022/05/04 13:00:43;;;;;;;3.35;1.77;;;;;;;;;;1684257;85;21077;-73
2022/05/04 13:03:12;;;;;;;3.25;1.98;;;;;;;;;;1693927;83;21057;-73
2022/05/04 13:05:39;;;;;;;3.55;1.80;;;;;;;;;;1678922;85;21629;-73
2022/05/04 13:08:06;;;;;;;2.77;1.70;;;;;;;;;;1667686;85;21065;-73
2022/05/04 13:10:32;;;;;;;4.58;2.10;;;;;;;;;;1674640;85;21046;-73
2022/05/04 13:12:58;;;;;;;4.72;2.30;;;;;;;;;;1687587;83;21068;-72
2022/05/04 13:15:26;;;;;;;3.95;2.25;;;;;;;;;;1717984;82;21022;-71
2022/05/04 13:17:52;;;;;;;3.20;2.10;;;;;;;;;;1714752;82;21089;-71
2022/05/04 13:20:19;;;;;;;6.85;2.30;;;;;;;;;;1745494;82;21492;-71
2022/05/04 13:22:45;;;;;;;2.52;2.00;;;;;;;;;;1717002;83;21140;-73
2022/05/04 13:25:16;;;;;;;3.75;2.42;;;;;;;;;;1726991;82;21651;-72
2022/05/04 13:27:43;;;;;;;5.28;2.75;;;;;;;;;;1733603;83;21055;-73
2022/05/04 13:30:09;;;;;;;7.42;2.90;;;;;;;;;;1733633;83;21031;-73
2022/05/04 13:32:36;;;;;;;4.47;2.40;;;;;;;;;;1739130;82;21051;-73
2022/05/04 13:35:02;;;;;;;4.72;2.67;;;;;;;;;;1691378;83;21028;-76
2022/05/04 13:37:28;;;;;;;4.03;2.37;;;;;;;;;;1676676;85;21079;-70
2022/05/04 13:39:54;;;;;;;4.37;2.33;;;;;;;;;;1724795;82;20989;-73
2022/05/04 13:42:20;;;;;;;3.60;2.30;;;;;;;;;;1705350;83;21046;-73
2022/05/04 13:44:46;;;;;;;4.80;2.30;;;;;;;;;;1716879;82;21017;-73
2022/05/04 13:47:12;;;;;;;3.17;2.00;;;;;;;;;;1713760;83;20977;-74
2022/05/04 13:49:39;;;;;;;3.05;1.90;;;;;;;;;;1703324;83;21190;-75
2022/05/04 13:54:49;;;;;;;4.62;2.00;;;;;;;;;;1712366;84;21031;-73
2022/05/04 13:57:16;;;;;;;3.75;2.08;;;;;;;;;;1709120;84;21021;-73
2022/05/04 13:59:42;;;;;;;3.55;2.50;;;;;;;;;;1685517;85;21505;-72
2022/05/04 14:02:09;;;;;;;5.53;3.40;;;;;;;;;;1753129;82;21028;-73
2022/05/04 14:04:37;;;;;;;6.15;2.90;;;;;;;;;;1753123;80;21154;-74
2022/05/04 14:07:04;;;;;;;4.30;2.40;;;;;;;;;;1739975;82;21030;-74
2022/05/04 14:09:32;;;;;;;4.67;2.80;;;;;;;;;;1730709;81;21067;-69
2022/05/04 14:12:01;;;;;;;4.03;2.15;;;;;;;;;;1738825;81;21598;-73
2022/05/04 14:17:12;;;;;;;5.87;3.10;;;;;;;;;;1716116;83;21493;-73
2022/05/04 14:19:39;;;;;;;6.72;3.35;;;;;;;;;;1729748;82;21072;-72
2022/05/04 14:22:07;;;;;;;7.60;3.50;;;;;;;;;;1726493;82;21032;-72
2022/05/04 14:24:33;;;;;;;4.83;3.12;;;;;;;;;;1736934;81;21019;-71
2022/05/04 14:26:59;;;;;;;4.37;2.92;;;;;;;;;;1747460;81;21000;-74
2022/05/04 14:29:25;;;;;;;3.30;2.30;;;;;;;;;;1744232;81;21070;-74
2022/05/04 14:31:53;;;;;;;6.72;2.60;;;;;;;;;;1761736;81;21043;-73
2022/05/04 14:34:19;;;;;;;3.90;2.40;;;;;;;;;;1747935;81;20964;-73
2022/05/04 14:36:45;;;;;;;4.28;2.17;;;;;;;;;;1751043;81;20992;-72
2022/05/04 14:39:11;;;;;;;4.22;2.30;;;;;;;;;;1712763;83;21035;-72
2022/05/04 14:41:37;;;;;;;4.03;2.10;;;;;;;;;;1698441;83;21033;-71
2022/05/04 14:44:03;;;;;;;3.72;2.72;;;;;;;;;;1723672;83;21544;-69
2022/05/04 14:46:29;;;;;;;3.95;2.80;;;;;;;;;;1721856;83;21048;-72
2022/05/04 14:48:55;;;;;;;3.92;2.70;;;;;;;;;;1695805;84;21090;-72
2022/05/04 14:51:21;;;;;;;4.67;2.50;;;;;;;;;;1696446;84;21422;-72
2022/05/04 14:53:50;;;;;;;3.62;2.62;;;;;;;;;;1703534;83;21032;-72
2022/05/04 14:56:15;;;;;;;5.08;2.60;;;;;;;;;;1722566;83;21017;-69
2022/05/04 14:58:41;;;;;;;4.30;2.58;;;;;;;;;;1703962;83;21107;-73
2022/05/04 15:01:07;;;;;;;4.42;2.98;;;;;;;;;;1678446;85;21604;-71
2022/05/04 15:06:19;;;;;;;4.45;2.52;;;;;;;;;;1703477;82;21234;-71
2022/05/04 15:08:45;;;;;;;4.67;2.70;;;;;;;;;;1695954;84;21028;-71
2022/05/04 15:11:11;;;;;;;4.37;3.02;;;;;;;;;;1712952;83;21060;-71
2022/05/04 15:13:38;;;;;;;4.53;3.00;;;;;;;;;;1696401;84;21586;-71
2022/05/04 15:16:05;;;;;;;6.28;2.80;;;;;;;;;;1668572;85;21010;-72
2022/05/04 15:18:31;;;;;;;5.58;3.12;;;;;;;;;;1677244;85;21089;-71
2022/05/04 15:20:58;;;;;;;5.42;3.22;;;;;;;;;;1677346;85;21097;-72
2022/05/04 15:23:24;;;;;;;5.87;3.27;;;;;;;;;;1677230;85;21054;-73
2022/05/04 15:25:50;;;;;;;6.55;3.27;;;;;;;;;;1694749;85;21055;-72
2022/05/04 15:28:16;;;;;;;5.30;3.95;;;;;;;;;;1675511;85;20995;-72
2022/05/04 15:30:42;;;;;;;5.67;3.90;;;;;;;;;;1698207;83;21595;-71
2022/05/04 15:33:08;;;;;;;5.50;4.17;;;;;;;;;;1696717;83;21067;-71
2022/05/04 15:35:34;;;;;;;5.60;3.75;;;;;;;;;;1694618;85;21036;-73
2022/05/04 15:38:00;;;;;;;8.13;3.98;;;;;;;;;;1667528;85;21489;-73